sensor_id;sensor_type;location;lat;lon;timestamp;pressure;altitude;pressure_sealevel;temperature;humidity
59513;BME280;45330;51.634;5.562;2022-09-09T00:04:35;100702.88;;;12.57;100.00
59513;BME280;45330;51.634;5.562;2022-09-09T00:15:21;100697.75;;;12.52;100.00
59513;BME280;45330;51.634;5.562;2022-09-09T00:17:59;100704.66;;;12.53;100.00
59513;BME280;45330;51.634;5.562;2022-09-09T00:21:06;100702.03;;;12.53;100.00
59513;BME280;45330;51.634;5.562;2022-09-09T00:23:35;100664.13;;;12.32;100.00
59513;BME280;45330;51.634;5.562;2022-09-09T00:28:57;100691.84;;;12.39;100.00
59513;BME280;45330;51.634;5.562;2022-09-09T00:31:28;100696.13;;;12.45;100.00
59513;BME280;45330;51.634;5.562;2022-09-09T00:34:18;100700.47;;;12.44;100.00
59513;BME280;45330;51.634;5.562;2022-09-09T00:36:42;100690.94;;;12.40;100.00
59513;BME280;45330;51.634;5.562;2022-09-09T00:39:24;100693.56;;;12.40;100.00
59513;BME280;45330;51.634;5.562;2022-09-09T00:55:54;100656.50;;;12.20;100.00
59513;BME280;45330;51.634;5.562;2022-09-09T00:58:21;100663.38;;;12.25;100.00
59513;BME280;45330;51.634;5.562;2022-09-09T01:00:51;100640.13;;;12.11;100.00
59513;BME280;45330;51.634;5.562;2022-09-09T01:03:43;100665.06;;;12.29;100.00
59513;BME280;45330;51.634;5.562;2022-09-09T01:06:25;100668.53;;;12.28;100.00
59513;BME280;45330;51.634;5.562;2022-09-09T01:11:32;100671.22;;;12.24;100.00
59513;BME280;45330;51.634;5.562;2022-09-09T01:16:45;100664.31;;;12.21;100.00
59513;BME280;45330;51.634;5.562;2022-09-09T01:19:20;100672.16;;;12.20;100.00
59513;BME280;45330;51.634;5.562;2022-09-09T01:25:26;100672.13;;;12.21;100.00
59513;BME280;45330;51.634;5.562;2022-09-09T01:27:56;100645.47;;;12.02;100.00
59513;BME280;45330;51.634;5.562;2022-09-09T01:30:23;100664.38;;;12.18;100.00
59513;BME280;45330;51.634;5.562;2022-09-09T01:32:52;100641.91;;;12.06;100.00
59513;BME280;45330;51.634;5.562;2022-09-09T01:35:43;100669.50;;;12.23;100.00
59513;BME280;45330;51.634;5.562;2022-09-09T01:38:10;100640.19;;;12.05;100.00
59513;BME280;45330;51.634;5.562;2022-09-09T01:40:36;100624.69;;;11.97;100.00
59513;BME280;45330;51.634;5.562;2022-09-09T01:43:02;100634.97;;;12.08;100.00
59513;BME280;45330;51.634;5.562;2022-09-09T01:45:28;100647.13;;;12.08;100.00
59513;BME280;45330;51.634;5.562;2022-09-09T01:47:54;100637.66;;;12.00;100.00
59513;BME280;45330;51.634;5.562;2022-09-09T01:50:20;100635.09;;;11.99;100.00
59513;BME280;45330;51.634;5.562;2022-09-09T01:52:51;100651.44;;;12.10;100.00
59513;BME280;45330;51.634;5.562;2022-09-09T01:55:23;100647.97;;;12.10;100.00
59513;BME280;45330;51.634;5.562;2022-09-09T02:00:29;100655.69;;;12.16;100.00
59513;BME280;45330;51.634;5.562;2022-09-09T02:03:20;100653.97;;;12.13;100.00
59513;BME280;45330;51.634;5.562;2022-09-09T02:06:12;100646.16;;;12.13;100.00
59513;BME280;45330;51.634;5.562;2022-09-09T02:08:40;100637.38;;;12.19;100.00
59513;BME280;45330;51.634;5.562;2022-09-09T02:11:08;100644.38;;;12.17;100.00
59513;BME280;45330;51.634;5.562;2022-09-09T02:13:36;100621.97;;;12.04;100.00
59513;BME280;45330;51.634;5.562;2022-09-09T02:18:43;100640.06;;;12.14;100.00
59513;BME280;45330;51.634;5.562;2022-09-09T02:21:12;100629.69;;;12.11;100.00
59513;BME280;45330;51.634;5.562;2022-09-09T02:23:41;100628.81;;;12.09;100.00
59513;BME280;45330;51.634;5.562;2022-09-09T02:26:09;100629.63;;;12.14;100.00
59513;BME280;45330;51.634;5.562;2022-09-09T02:28:38;100636.66;;;12.09;100.00
59513;BME280;45330;51.634;5.562;2022-09-09T02:31:05;100629.72;;;12.10;100.00
59513;BME280;45330;51.634;5.562;2022-09-09T02:33:36;100614.16;;;12.02;100.00
59513;BME280;45330;51.634;5.562;2022-09-09T02:36:02;100626.31;;;12.05;100.00
59513;BME280;45330;51.634;5.562;2022-09-09T02:38:33;100609.09;;;11.94;100.00
59513;BME280;45330;51.634;5.562;2022-09-09T02:41:00;100640.16;;;12.08;100.00
59513;BME280;45330;51.634;5.562;2022-09-09T02:43:31;100613.41;;;11.94;100.00
59513;BME280;45330;51.634;5.562;2022-09-09T02:46:18;100609.09;;;11.90;100.00
59513;BME280;45330;51.634;5.562;2022-09-09T02:49:08;100635.09;;;11.99;100.00
59513;BME280;45330;51.634;5.562;2022-09-09T02:52:02;100629.88;;;11.99;100.00
59513;BME280;45330;51.634;5.562;2022-09-09T02:54:33;100610.91;;;11.86;100.00
59513;BME280;45330;51.634;5.562;2022-09-09T02:57:11;100631.59;;;12.00;100.00
59513;BME280;45330;51.634;5.562;2022-09-09T02:59:37;100623.00;;;11.92;100.00
59513;BME280;45330;51.634;5.562;2022-09-09T03:02:03;100625.59;;;11.95;100.00
59513;BME280;45330;51.634;5.562;2022-09-09T03:04:29;100618.66;;;11.91;100.00
59513;BME280;45330;51.634;5.562;2022-09-09T03:06:57;100612.59;;;11.90;100.00
59513;BME280;45330;51.634;5.562;2022-09-09T03:09:22;100638.53;;;11.99;100.00
59513;BME280;45330;51.634;5.562;2022-09-09T03:11:48;100647.03;;;12.14;100.00
59513;BME280;45330;51.634;5.562;2022-09-09T03:14:15;100653.06;;;12.17;100.00
59513;BME280;45330;51.634;5.562;2022-09-09T03:16:40;100636.53;;;12.18;100.00
59513;BME280;45330;51.634;5.562;2022-09-09T03:19:07;100640.84;;;12.20;100.00
59513;BME280;45330;51.634;5.562;2022-09-09T03:21:33;100639.00;;;12.26;100.00
59513;BME280;45330;51.634;5.562;2022-09-09T03:23:58;100639.00;;;12.25;100.00
59513;BME280;45330;51.634;5.562;2022-09-09T03:26:23;100639.00;;;12.26;100.00
59513;BME280;45330;51.634;5.562;2022-09-09T03:28:49;100618.38;;;12.11;100.00
59513;BME280;45330;51.634;5.562;2022-09-09T03:31:17;100640.78;;;12.24;100.00
59513;BME280;45330;51.634;5.562;2022-09-09T03:33:43;100629.63;;;12.14;100.00
59513;BME280;45330;51.634;5.562;2022-09-09T03:36:08;100617.56;;;12.07;100.00
59513;BME280;45330;51.634;5.562;2022-09-09T03:38:34;100616.72;;;12.07;100.00
59513;BME280;45330;51.634;5.562;2022-09-09T03:41:00;100624.53;;;12.05;100.00
59513;BME280;45330;51.634;5.562;2022-09-09T03:43:26;100628.66;;;12.20;100.00
59513;BME280;45330;51.634;5.562;2022-09-09T03:45:52;100638.97;;;12.29;100.00
59513;BME280;45330;51.634;5.562;2022-09-09T03:48:19;100653.59;;;12.38;100.00
59513;BME280;45330;51.634;5.562;2022-09-09T03:50:48;100643.19;;;12.37;100.00
59513;BME280;45330;51.634;5.562;2022-09-09T03:53:16;100622.41;;;12.30;100.00
59513;BME280;45330;51.634;5.562;2022-09-09T03:55:48;100645.66;;;12.44;100.00
59513;BME280;45330;51.634;5.562;2022-09-09T03:58:15;100612.00;;;12.29;100.00
59513;BME280;45330;51.634;5.562;2022-09-09T04:00:41;100627.50;;;12.38;100.00
59513;BME280;45330;51.634;5.562;2022-09-09T04:03:10;100641.28;;;12.46;100.00
59513;BME280;45330;51.634;5.562;2022-09-09T04:05:36;100632.59;;;12.44;100.00
59513;BME280;45330;51.634;5.562;2022-09-09T04:08:08;100616.22;;;12.38;100.00
59513;BME280;45330;51.634;5.562;2022-09-09T04:10:34;100633.34;;;12.52;100.00
59513;BME280;45330;51.634;5.562;2022-09-09T04:13:03;100638.56;;;12.52;100.00
59513;BME280;45330;51.634;5.562;2022-09-09T04:15:28;100606.59;;;12.40;100.00
59513;BME280;45330;51.634;5.562;2022-09-09T04:17:54;100626.53;;;12.44;100.00
59513;BME280;45330;51.634;5.562;2022-09-09T04:20:19;100629.06;;;12.48;100.00
59513;BME280;45330;51.634;5.562;2022-09-09T04:22:45;100627.38;;;12.44;100.00
59513;BME280;45330;51.634;5.562;2022-09-09T04:25:10;100606.72;;;12.32;100.00
59513;BME280;45330;51.634;5.562;2022-09-09T04:27:35;100605.78;;;12.36;100.00
59513;BME280;45330;51.634;5.562;2022-09-09T04:30:01;100631.63;;;12.50;100.00
59513;BME280;45330;51.634;5.562;2022-09-09T04:32:26;100618.59;;;12.50;100.00
59513;BME280;45330;51.634;5.562;2022-09-09T04:34:52;100624.66;;;12.52;100.00
59513;BME280;45330;51.634;5.562;2022-09-09T04:37:17;100623.84;;;12.48;100.00
59513;BME280;45330;51.634;5.562;2022-09-09T04:39:43;100605.66;;;12.44;100.00
59513;BME280;45330;51.634;5.562;2022-09-09T04:42:08;100600.47;;;12.42;100.00
59513;BME280;45330;51.634;5.562;2022-09-09T04:44:33;100610.72;;;12.51;100.00
59513;BME280;45330;51.634;5.562;2022-09-09T04:46:59;100621.00;;;12.61;100.00
59513;BME280;45330;51.634;5.562;2022-09-09T04:49:24;100620.13;;;12.62;100.00
59513;BME280;45330;51.634;5.562;2022-09-09T04:51:51;100611.34;;;12.66;100.00
59513;BME280;45330;51.634;5.562;2022-09-09T04:54:17;100550.28;;;12.26;100.00
59513;BME280;45330;51.634;5.562;2022-09-09T04:56:42;100608.78;;;12.64;100.00
59513;BME280;45330;51.634;5.562;2022-09-09T04:59:08;100615.63;;;12.70;100.00
59513;BME280;45330;51.634;5.562;2022-09-09T05:01:35;100607.00;;;12.66;100.00
59513;BME280;45330;51.634;5.562;2022-09-09T05:04:01;100613.03;;;12.70;100.00
59513;BME280;45330;51.634;5.562;2022-09-09T05:06:28;100617.41;;;12.68;100.00
59513;BME280;45330;51.634;5.562;2022-09-09T05:08:56;100605.38;;;12.59;100.00
59513;BME280;45330;51.634;5.562;2022-09-09T05:11:25;100608.88;;;12.58;100.00
59513;BME280;45330;51.634;5.562;2022-09-09T05:13:51;100591.66;;;12.48;100.00
59513;BME280;45330;51.634;5.562;2022-09-09T05:16:17;100607.91;;;12.64;100.00
59513;BME280;45330;51.634;5.562;2022-09-09T05:18:43;100604.41;;;12.65;100.00
59513;BME280;45330;51.634;5.562;2022-09-09T05:21:14;100609.50;;;12.71;100.00
59513;BME280;45330;51.634;5.562;2022-09-09T05:23:40;100583.50;;;12.66;100.00
59513;BME280;45330;51.634;5.562;2022-09-09T05:26:07;100595.56;;;12.72;100.00
59513;BME280;45330;51.634;5.562;2022-09-09T05:28:35;100592.03;;;12.75;100.00
59513;BME280;45330;51.634;5.562;2022-09-09T05:31:06;100604.00;;;12.86;100.00
59513;BME280;45330;51.634;5.562;2022-09-09T05:33:34;100611.81;;;12.86;100.00
59513;BME280;45330;51.634;5.562;2022-09-09T05:36:06;100579.94;;;12.70;100.00
59513;BME280;45330;51.634;5.562;2022-09-09T05:38:33;100594.47;;;12.84;100.00
59513;BME280;45330;51.634;5.562;2022-09-09T05:40:59;100610.84;;;12.92;100.00
59513;BME280;45330;51.634;5.562;2022-09-09T05:43:26;100597.72;;;12.97;100.00
59513;BME280;45330;51.634;5.562;2022-09-09T05:46:03;100589.19;;;12.87;100.00
59513;BME280;45330;51.634;5.562;2022-09-09T05:48:34;100595.91;;;12.99;100.00
59513;BME280;45330;51.634;5.562;2022-09-09T05:51:01;100602.91;;;12.98;100.00
59513;BME280;45330;51.634;5.562;2022-09-09T05:53:28;100616.72;;;13.03;100.00
59513;BME280;45330;51.634;5.562;2022-09-09T05:58:36;100602.03;;;12.98;100.00
59513;BME280;45330;51.634;5.562;2022-09-09T06:03:28;100624.16;;;13.24;100.00
59513;BME280;45330;51.634;5.562;2022-09-09T06:05:57;100600.78;;;13.16;100.00
59513;BME280;45330;51.634;5.562;2022-09-09T06:08:23;100601.59;;;13.19;100.00
59513;BME280;45330;51.634;5.562;2022-09-09T06:10:49;100627.44;;;13.35;100.00
59513;BME280;45330;51.634;5.562;2022-09-09T06:13:14;100630.03;;;13.36;100.00
59513;BME280;45330;51.634;5.562;2022-09-09T06:15:49;100609.34;;;13.24;100.00
59513;BME280;45330;51.634;5.562;2022-09-09T06:18:14;100601.59;;;13.19;100.00
59513;BME280;45330;51.634;5.562;2022-09-09T06:20:43;100624.75;;;13.38;100.00
59513;BME280;45330;51.634;5.562;2022-09-09T06:23:08;100629.88;;;13.43;100.00
59513;BME280;45330;51.634;5.562;2022-09-09T06:25:33;100632.16;;;13.58;100.00
59513;BME280;45330;51.634;5.562;2022-09-09T06:27:59;100588.94;;;13.43;100.00
59513;BME280;45330;51.634;5.562;2022-09-09T06:30:24;100622.47;;;13.63;100.00
59513;BME280;45330;51.634;5.562;2022-09-09T06:32:50;100619.63;;;13.72;100.00
59513;BME280;45330;51.634;5.562;2022-09-09T06:35:16;100618.63;;;13.80;100.00
59513;BME280;45330;51.634;5.562;2022-09-09T06:37:45;100628.00;;;13.88;100.00
59513;BME280;45330;51.634;5.562;2022-09-09T06:40:10;100620.53;;;14.09;100.00
59513;BME280;45330;51.634;5.562;2022-09-09T06:42:36;100592.38;;;14.20;100.00
59513;BME280;45330;51.634;5.562;2022-09-09T06:45:01;100554.91;;;14.18;100.00
59513;BME280;45330;51.634;5.562;2022-09-09T06:47:28;100629.97;;;14.85;100.00
59513;BME280;45330;51.634;5.562;2022-09-09T06:49:53;100595.38;;;14.74;100.00
59513;BME280;45330;51.634;5.562;2022-09-09T06:52:18;100613.69;;;14.74;100.00
59513;BME280;45330;51.634;5.562;2022-09-09T06:54:44;100617.22;;;14.73;100.00
59513;BME280;45330;51.634;5.562;2022-09-09T06:57:10;100600.91;;;14.62;100.00
59513;BME280;45330;51.634;5.562;2022-09-09T06:59:36;100573.25;;;14.50;100.00
59513;BME280;45330;51.634;5.562;2022-09-09T07:02:01;100601.78;;;14.61;100.00
59513;BME280;45330;51.634;5.562;2022-09-09T07:04:27;100593.16;;;14.57;100.00
59513;BME280;45330;51.634;5.562;2022-09-09T07:06:52;100624.03;;;14.79;100.00
59513;BME280;45330;51.634;5.562;2022-09-09T07:09:17;100609.25;;;14.76;100.00
59513;BME280;45330;51.634;5.562;2022-09-09T07:11:50;100609.31;;;14.74;100.00
59513;BME280;45330;51.634;5.562;2022-09-09T07:14:19;100615.38;;;14.75;100.00
59513;BME280;45330;51.634;5.562;2022-09-09T07:16:45;100623.81;;;14.86;100.00
59513;BME280;45330;51.634;5.562;2022-09-09T07:19:12;100613.91;;;14.98;100.00
59513;BME280;45330;51.634;5.562;2022-09-09T07:21:38;100626.56;;;15.13;100.00
59513;BME280;45330;51.634;5.562;2022-09-09T07:24:05;100599.75;;;15.05;100.00
59513;BME280;45330;51.634;5.562;2022-09-09T07:26:32;100614.78;;;15.28;100.00
59513;BME280;45330;51.634;5.562;2022-09-09T07:28:58;100621.25;;;15.46;100.00
59513;BME280;45330;51.634;5.562;2022-09-09T07:31:27;100616.22;;;15.68;100.00
59513;BME280;45330;51.634;5.562;2022-09-09T07:33:53;100605.78;;;15.67;100.00
59513;BME280;45330;51.634;5.562;2022-09-09T07:36:20;100614.16;;;15.78;100.00
59513;BME280;45330;51.634;5.562;2022-09-09T07:38:51;100594.97;;;15.76;100.00
59513;BME280;45330;51.634;5.562;2022-09-09T07:41:28;100594.69;;;15.87;100.00
59513;BME280;45330;51.634;5.562;2022-09-09T07:43:55;100592.41;;;16.03;100.00
59513;BME280;45330;51.634;5.562;2022-09-09T07:46:22;100590.00;;;15.97;100.00
59513;BME280;45330;51.634;5.562;2022-09-09T07:48:50;100599.44;;;16.02;100.00
59513;BME280;45330;51.634;5.562;2022-09-09T07:51:21;100603.22;;;16.20;100.00
59513;BME280;45330;51.634;5.562;2022-09-09T07:53:48;100608.19;;;16.28;100.00
59513;BME280;45330;51.634;5.562;2022-09-09T07:56:16;100622.22;;;16.27;100.00
59513;BME280;45330;51.634;5.562;2022-09-09T07:58:44;100615.84;;;16.09;100.00
59513;BME280;45330;51.634;5.562;2022-09-09T08:01:15;100596.75;;;16.04;100.00
59513;BME280;45330;51.634;5.562;2022-09-09T08:03:42;100599.47;;;16.27;100.00
59513;BME280;45330;51.634;5.562;2022-09-09T08:06:08;100624.69;;;16.58;100.00
59513;BME280;45330;51.634;5.562;2022-09-09T08:08:35;100614.84;;;16.63;100.00
59513;BME280;45330;51.634;5.562;2022-09-09T08:11:04;100631.00;;;16.78;100.00
59513;BME280;45330;51.634;5.562;2022-09-09T08:13:30;100608.34;;;16.75;100.00
59513;BME280;45330;51.634;5.562;2022-09-09T08:16:06;100609.81;;;16.83;100.00
59513;BME280;45330;51.634;5.562;2022-09-09T08:18:32;100628.03;;;16.87;100.00
59513;BME280;45330;51.634;5.562;2022-09-09T08:20:58;100633.41;;;16.84;100.00
59513;BME280;45330;51.634;5.562;2022-09-09T08:23:29;100631.56;;;16.86;100.00
59513;BME280;45330;51.634;5.562;2022-09-09T08:25:54;100614.66;;;16.95;100.00
59513;BME280;45330;51.634;5.562;2022-09-09T08:28:19;100622.50;;;16.96;100.00
59513;BME280;45330;51.634;5.562;2022-09-09T08:30:45;100640.41;;;16.85;100.00
59513;BME280;45330;51.634;5.562;2022-09-09T08:33:12;100622.66;;;16.67;100.00
59513;BME280;45330;51.634;5.562;2022-09-09T08:35:37;100634.97;;;16.64;100.00
59513;BME280;45330;51.634;5.562;2022-09-09T08:38:03;100631.81;;;16.55;100.00
59513;BME280;45330;51.634;5.562;2022-09-09T08:40:33;100647.75;;;16.75;100.00
59513;BME280;45330;51.634;5.562;2022-09-09T08:43:03;100648.53;;;16.77;100.00
59513;BME280;45330;51.634;5.562;2022-09-09T08:45:34;100649.59;;;16.72;100.00
59513;BME280;45330;51.634;5.562;2022-09-09T08:50:35;100644.78;;;16.59;100.00
59513;BME280;45330;51.634;5.562;2022-09-09T08:53:08;100637.94;;;16.55;100.00
59513;BME280;45330;51.634;5.562;2022-09-09T08:55:50;100650.50;;;16.71;100.00
59513;BME280;45330;51.634;5.562;2022-09-09T08:58:17;100651.28;;;16.74;100.00
59513;BME280;45330;51.634;5.562;2022-09-09T09:11:38;100650.91;;;16.60;100.00
59513;BME280;45330;51.634;5.562;2022-09-09T09:14:12;100643.50;;;16.46;100.00
59513;BME280;45330;51.634;5.562;2022-09-09T09:16:51;100671.44;;;16.49;100.00
59513;BME280;45330;51.634;5.562;2022-09-09T09:19:17;100667.19;;;16.44;100.00
59513;BME280;45330;51.634;5.562;2022-09-09T09:21:45;100668.25;;;16.39;100.00
59513;BME280;45330;51.634;5.562;2022-09-09T09:26:50;100660.03;;;16.48;100.00
59513;BME280;45330;51.634;5.562;2022-09-09T09:29:18;100643.59;;;16.43;100.00
59513;BME280;45330;51.634;5.562;2022-09-09T09:31:53;100654.38;;;16.60;100.00
59513;BME280;45330;51.634;5.562;2022-09-09T09:34:20;100646.06;;;16.73;100.00
59513;BME280;45330;51.634;5.562;2022-09-09T09:36:58;100646.34;;;16.90;100.00
59513;BME280;45330;51.634;5.562;2022-09-09T09:39:31;100645.28;;;16.96;100.00
59513;BME280;45330;51.634;5.562;2022-09-09T09:42:16;100658.03;;;17.07;100.00
59513;BME280;45330;51.634;5.562;2022-09-09T09:44:42;100663.25;;;17.08;100.00
59513;BME280;45330;51.634;5.562;2022-09-09T09:47:13;100656.69;;;17.20;100.00
59513;BME280;45330;51.634;5.562;2022-09-09T09:49:39;100663.78;;;17.42;100.00
59513;BME280;45330;51.634;5.562;2022-09-09T09:52:06;100664.75;;;17.39;99.62
59513;BME280;45330;51.634;5.562;2022-09-09T09:54:34;100666.59;;;17.37;100.00
59513;BME280;45330;51.634;5.562;2022-09-09T09:57:14;100652.88;;;17.29;100.00
59513;BME280;45330;51.634;5.562;2022-09-09T09:59:40;100659.31;;;17.44;100.00
59513;BME280;45330;51.634;5.562;2022-09-09T10:02:22;100663.78;;;17.65;100.00
59513;BME280;45330;51.634;5.562;2022-09-09T10:05:04;100662.47;;;17.76;100.00
59513;BME280;45330;51.634;5.562;2022-09-09T10:07:30;100666.28;;;17.69;98.73
59513;BME280;45330;51.634;5.562;2022-09-09T10:09:58;100644.78;;;17.34;100.00
59513;BME280;45330;51.634;5.562;2022-09-09T10:21:25;100663.25;;;17.08;100.00
59513;BME280;45330;51.634;5.562;2022-09-09T10:26:55;100658.13;;;16.53;100.00
59513;BME280;45330;51.634;5.562;2022-09-09T10:32:36;100642.03;;;16.10;100.00
59513;BME280;45330;51.634;5.562;2022-09-09T10:35:30;100655.34;;;16.31;100.00
59513;BME280;45330;51.634;5.562;2022-09-09T10:38:16;100655.59;;;16.50;100.00
59513;BME280;45330;51.634;5.562;2022-09-09T10:46:31;100672.19;;;16.77;100.00
59513;BME280;45330;51.634;5.562;2022-09-09T10:49:51;100673.19;;;16.73;100.00
59513;BME280;45330;51.634;5.562;2022-09-09T10:52:33;100675.75;;;16.76;100.00
59513;BME280;45330;51.634;5.562;2022-09-09T10:57:46;100671.53;;;17.21;100.00
59513;BME280;45330;51.634;5.562;2022-09-09T11:02:48;100679.91;;;17.09;100.00
59513;BME280;45330;51.634;5.562;2022-09-09T11:05:20;100678.03;;;16.86;100.00
59513;BME280;45330;51.634;5.562;2022-09-09T11:07:57;100672.88;;;16.83;100.00
59513;BME280;45330;51.634;5.562;2022-09-09T11:10:38;100677.59;;;17.00;100.00
59513;BME280;45330;51.634;5.562;2022-09-09T11:13:19;100665.63;;;17.40;100.00
59513;BME280;45330;51.634;5.562;2022-09-09T11:16:01;100668.13;;;17.66;100.00
59513;BME280;45330;51.634;5.562;2022-09-09T11:18:31;100671.06;;;17.81;100.00
59513;BME280;45330;51.634;5.562;2022-09-09T11:21:03;100663.78;;;17.88;100.00
59513;BME280;45330;51.634;5.562;2022-09-09T11:23:47;100671.53;;;17.92;100.00
59513;BME280;45330;51.634;5.562;2022-09-09T11:26:21;100659.53;;;17.61;100.00
59513;BME280;45330;51.634;5.562;2022-09-09T11:32:04;100651.66;;;17.38;100.00
59513;BME280;45330;51.634;5.562;2022-09-09T11:34:39;100668.97;;;17.43;100.00
59513;BME280;45330;51.634;5.562;2022-09-09T11:40:18;100660.94;;;17.94;100.00
59513;BME280;45330;51.634;5.562;2022-09-09T11:42:46;100649.47;;;18.17;100.00
59513;BME280;45330;51.634;5.562;2022-09-09T11:45:24;100671.41;;;18.40;100.00
59513;BME280;45330;51.634;5.562;2022-09-09T11:47:55;100660.03;;;18.38;100.00
59513;BME280;45330;51.634;5.562;2022-09-09T11:52:47;100648.13;;;18.07;99.72
59513;BME280;45330;51.634;5.562;2022-09-09T11:55:33;100662.94;;;18.31;100.00
59513;BME280;45330;51.634;5.562;2022-09-09T11:58:25;100645.22;;;18.14;99.09
59513;BME280;45330;51.634;5.562;2022-09-09T12:00:49;100665.47;;;18.12;99.63
59513;BME280;45330;51.634;5.562;2022-09-09T12:06:00;100653.25;;;17.88;98.59
59513;BME280;45330;51.634;5.562;2022-09-09T12:08:34;100649.56;;;17.70;100.00
59513;BME280;45330;51.634;5.562;2022-09-09T12:11:02;100665.31;;;17.71;100.00
59513;BME280;45330;51.634;5.562;2022-09-09T12:13:28;100663.25;;;17.79;100.00
59513;BME280;45330;51.634;5.562;2022-09-09T12:15:57;100666.81;;;18.00;100.00
59513;BME280;45330;51.634;5.562;2022-09-09T12:18:31;100654.38;;;18.26;99.78
59513;BME280;45330;51.634;5.562;2022-09-09T12:24:11;100660.72;;;18.63;98.33
59513;BME280;45330;51.634;5.562;2022-09-09T12:29:32;100633.84;;;18.96;95.30
59513;BME280;45330;51.634;5.562;2022-09-09T12:32:16;100661.91;;;19.56;93.71
59513;BME280;45330;51.634;5.562;2022-09-09T12:34:52;100640.22;;;19.68;90.47
59513;BME280;45330;51.634;5.562;2022-09-09T12:37:48;100654.06;;;19.74;90.15
59513;BME280;45330;51.634;5.562;2022-09-09T12:40:19;100649.00;;;19.50;88.58
59513;BME280;45330;51.634;5.562;2022-09-09T12:42:45;100648.81;;;19.35;89.24
59513;BME280;45330;51.634;5.562;2022-09-09T12:45:21;100655.94;;;19.52;91.05
59513;BME280;45330;51.634;5.562;2022-09-09T12:48:05;100638.75;;;19.82;89.89
59513;BME280;45330;51.634;5.562;2022-09-09T12:50:53;100651.16;;;19.99;89.40
59513;BME280;45330;51.634;5.562;2022-09-09T12:53:46;100631.00;;;19.96;86.19
59513;BME280;45330;51.634;5.562;2022-09-09T12:56:20;100628.72;;;19.88;86.44
59513;BME280;45330;51.634;5.562;2022-09-09T12:58:47;100630.03;;;19.80;84.74
59513;BME280;45330;51.634;5.562;2022-09-09T13:03:48;100607.19;;;19.02;87.86
59513;BME280;45330;51.634;5.562;2022-09-09T13:06:22;100639.03;;;18.77;88.70
59513;BME280;45330;51.634;5.562;2022-09-09T13:08:56;100636.59;;;18.31;94.42
59513;BME280;45330;51.634;5.562;2022-09-09T13:11:26;100615.78;;;17.81;100.00
59513;BME280;45330;51.634;5.562;2022-09-09T13:13:54;100653.13;;;17.69;100.00
59513;BME280;45330;51.634;5.562;2022-09-09T13:16:25;100654.06;;;17.20;100.00
59513;BME280;45330;51.634;5.562;2022-09-09T13:18:51;100638.56;;;16.87;100.00
59513;BME280;45330;51.634;5.562;2022-09-09T13:21:17;100622.13;;;16.57;100.00
59513;BME280;45330;51.634;5.562;2022-09-09T13:23:49;100646.44;;;16.62;100.00
59513;BME280;45330;51.634;5.562;2022-09-09T13:26:26;100641.59;;;16.76;100.00
59513;BME280;45330;51.634;5.562;2022-09-09T13:28:53;100639.69;;;17.05;100.00
59513;BME280;45330;51.634;5.562;2022-09-09T13:33:46;100615.66;;;17.62;100.00
59513;BME280;45330;51.634;5.562;2022-09-09T13:36:13;100612.84;;;17.89;100.00
59513;BME280;45330;51.634;5.562;2022-09-09T13:41:21;100626.88;;;18.54;100.00
59513;BME280;45330;51.634;5.562;2022-09-09T13:43:49;100617.88;;;18.79;100.00
59513;BME280;45330;51.634;5.562;2022-09-09T13:46:39;100620.06;;;19.10;100.00
59513;BME280;45330;51.634;5.562;2022-09-09T13:51:39;100587.03;;;18.81;100.00
59513;BME280;45330;51.634;5.562;2022-09-09T13:54:06;100592.72;;;18.92;100.00
59513;BME280;45330;51.634;5.562;2022-09-09T13:56:36;100604.34;;;18.88;100.00
59513;BME280;45330;51.634;5.562;2022-09-09T13:59:03;100607.34;;;18.99;100.00
59513;BME280;45330;51.634;5.562;2022-09-09T14:01:29;100596.47;;;18.86;100.00
59513;BME280;45330;51.634;5.562;2022-09-09T14:03:55;100608.41;;;18.95;98.10
59513;BME280;45330;51.634;5.562;2022-09-09T14:06:21;100612.47;;;19.02;98.99
59513;BME280;45330;51.634;5.562;2022-09-09T14:08:47;100592.03;;;19.08;95.31
59513;BME280;45330;51.634;5.562;2022-09-09T14:11:14;100606.50;;;19.18;96.51
59513;BME280;45330;51.634;5.562;2022-09-09T14:13:39;100605.34;;;19.24;96.44
59513;BME280;45330;51.634;5.562;2022-09-09T14:16:05;100614.06;;;19.26;96.83
59513;BME280;45330;51.634;5.562;2022-09-09T14:18:30;100585.53;;;19.15;95.34
59513;BME280;45330;51.634;5.562;2022-09-09T14:20:56;100592.66;;;19.32;96.03
59513;BME280;45330;51.634;5.562;2022-09-09T14:23:23;100585.47;;;19.35;93.94
59513;BME280;45330;51.634;5.562;2022-09-09T14:25:49;100609.53;;;19.66;91.70
59513;BME280;45330;51.634;5.562;2022-09-09T14:28:16;100600.47;;;19.71;91.66
59513;BME280;45330;51.634;5.562;2022-09-09T14:30:43;100599.31;;;19.77;90.27
59513;BME280;45330;51.634;5.562;2022-09-09T14:33:13;100607.25;;;19.77;92.85
59513;BME280;45330;51.634;5.562;2022-09-09T14:35:39;100599.38;;;19.58;90.63
59513;BME280;45330;51.634;5.562;2022-09-09T14:38:06;100589.53;;;19.43;91.84
59513;BME280;45330;51.634;5.562;2022-09-09T14:40:34;100602.44;;;19.49;90.01
59513;BME280;45330;51.634;5.562;2022-09-09T14:42:59;100605.16;;;19.47;91.79
59513;BME280;45330;51.634;5.562;2022-09-09T14:45:25;100609.44;;;19.50;90.62
59513;BME280;45330;51.634;5.562;2022-09-09T14:47:52;100594.25;;;19.55;91.28
59513;BME280;45330;51.634;5.562;2022-09-09T14:50:21;100587.09;;;19.57;94.16
59513;BME280;45330;51.634;5.562;2022-09-09T14:52:47;100595.50;;;19.65;90.66